< < Back
Terminal Aerodrome Forecast


Current Version              Previous Versions:   1  2  3  4  5  6  7  8  9  

Terminal Aerodrome Forecast

058
FTUS42 KCAE 012000 AAA
TAFAGS
TAF AMD
KAGS 012045Z 0121/0218 VRB05KT P6SM SCT060
     FM020100 00000KT P6SM SKC
     FM020900 00000KT 2SM BR SCT002
     FM021300 VRB04KT P6SM SCT050=

Latest METAR

794
SAUS70 KWBC 020200 RRN
MTRAGS
METAR KAGS 020153Z 00000KT 9SM CLR 18/18 A3000 RMK AO2 SLP159
T01830178


USA.gov is the U.S. government's official web portal to all federal, state and local government web resources and services.